sensor_id;sensor_type;location;lat;lon;timestamp;P1;durP1;ratioP1;P2;durP2;ratioP2
81191;SDS011;70665;47.652;-2.730;2023-08-20T00:00:27;14.60;;;2.72;;
81191;SDS011;70665;47.652;-2.730;2023-08-20T00:02:57;13.30;;;3.00;;
81191;SDS011;70665;47.652;-2.730;2023-08-20T00:05:28;12.07;;;3.47;;
81191;SDS011;70665;47.652;-2.730;2023-08-20T00:07:54;13.32;;;3.33;;
81191;SDS011;70665;47.652;-2.730;2023-08-20T00:10:19;15.60;;;3.22;;
81191;SDS011;70665;47.652;-2.730;2023-08-20T00:12:45;17.80;;;2.97;;
81191;SDS011;70665;47.652;-2.730;2023-08-20T00:15:11;11.65;;;2.90;;
81191;SDS011;70665;47.652;-2.730;2023-08-20T00:17:37;9.57;;;2.40;;
81191;SDS011;70665;47.652;-2.730;2023-08-20T00:20:04;10.30;;;2.67;;
81191;SDS011;70665;47.652;-2.730;2023-08-20T00:22:35;8.07;;;2.15;;
81191;SDS011;70665;47.652;-2.730;2023-08-20T00:25:02;8.73;;;3.10;;
81191;SDS011;70665;47.652;-2.730;2023-08-20T00:27:30;9.98;;;2.65;;
81191;SDS011;70665;47.652;-2.730;2023-08-20T00:29:56;11.10;;;3.05;;
81191;SDS011;70665;47.652;-2.730;2023-08-20T00:32:21;21.00;;;4.03;;
81191;SDS011;70665;47.652;-2.730;2023-08-20T00:34:47;6.22;;;2.88;;
81191;SDS011;70665;47.652;-2.730;2023-08-20T00:37:13;13.80;;;3.22;;
81191;SDS011;70665;47.652;-2.730;2023-08-20T00:39:39;8.75;;;2.78;;
81191;SDS011;70665;47.652;-2.730;2023-08-20T00:42:04;14.30;;;4.10;;
81191;SDS011;70665;47.652;-2.730;2023-08-20T00:44:30;18.58;;;3.88;;
81191;SDS011;70665;47.652;-2.730;2023-08-20T00:46:56;21.75;;;4.25;;
81191;SDS011;70665;47.652;-2.730;2023-08-20T00:49:23;21.55;;;3.92;;
81191;SDS011;70665;47.652;-2.730;2023-08-20T00:51:49;15.05;;;4.50;;
81191;SDS011;70665;47.652;-2.730;2023-08-20T00:54:15;39.63;;;6.78;;
81191;SDS011;70665;47.652;-2.730;2023-08-20T00:56:42;50.83;;;4.82;;
81191;SDS011;70665;47.652;-2.730;2023-08-20T00:59:07;43.08;;;5.03;;
81191;SDS011;70665;47.652;-2.730;2023-08-20T01:01:34;36.67;;;4.90;;
81191;SDS011;70665;47.652;-2.730;2023-08-20T01:03:59;52.65;;;5.43;;
81191;SDS011;70665;47.652;-2.730;2023-08-20T01:09:30;26.42;;;5.72;;
81191;SDS011;70665;47.652;-2.730;2023-08-20T01:12:05;15.20;;;3.38;;
81191;SDS011;70665;47.652;-2.730;2023-08-20T01:14:31;14.80;;;3.33;;
81191;SDS011;70665;47.652;-2.730;2023-08-20T01:16:57;9.55;;;3.72;;
81191;SDS011;70665;47.652;-2.730;2023-08-20T01:19:23;11.93;;;3.80;;
81191;SDS011;70665;47.652;-2.730;2023-08-20T01:27:26;32.92;;;3.53;;
81191;SDS011;70665;47.652;-2.730;2023-08-20T01:29:54;56.00;;;4.90;;
81191;SDS011;70665;47.652;-2.730;2023-08-20T01:32:20;39.47;;;4.05;;
81191;SDS011;70665;47.652;-2.730;2023-08-20T01:34:48;58.08;;;4.85;;
81191;SDS011;70665;47.652;-2.730;2023-08-20T01:37:14;47.65;;;5.53;;
81191;SDS011;70665;47.652;-2.730;2023-08-20T01:39:41;31.02;;;4.55;;
81191;SDS011;70665;47.652;-2.730;2023-08-20T01:42:06;38.42;;;4.35;;
81191;SDS011;70665;47.652;-2.730;2023-08-20T01:44:32;33.00;;;4.95;;
81191;SDS011;70665;47.652;-2.730;2023-08-20T01:46:58;40.88;;;4.95;;
81191;SDS011;70665;47.652;-2.730;2023-08-20T01:49:24;38.38;;;4.47;;
81191;SDS011;70665;47.652;-2.730;2023-08-20T01:51:49;42.05;;;4.68;;
81191;SDS011;70665;47.652;-2.730;2023-08-20T01:54:15;45.63;;;3.78;;
81191;SDS011;70665;47.652;-2.730;2023-08-20T01:56:41;38.58;;;4.05;;
81191;SDS011;70665;47.652;-2.730;2023-08-20T01:59:07;22.23;;;3.15;;
81191;SDS011;70665;47.652;-2.730;2023-08-20T02:01:33;17.92;;;2.92;;
81191;SDS011;70665;47.652;-2.730;2023-08-20T02:03:59;14.45;;;3.60;;
81191;SDS011;70665;47.652;-2.730;2023-08-20T02:06:24;14.98;;;2.88;;
81191;SDS011;70665;47.652;-2.730;2023-08-20T02:08:50;15.63;;;3.55;;
81191;SDS011;70665;47.652;-2.730;2023-08-20T02:11:16;15.80;;;3.42;;
81191;SDS011;70665;47.652;-2.730;2023-08-20T02:13:41;27.45;;;3.63;;
81191;SDS011;70665;47.652;-2.730;2023-08-20T02:16:07;25.08;;;3.72;;
81191;SDS011;70665;47.652;-2.730;2023-08-20T02:18:32;8.57;;;2.83;;
81191;SDS011;70665;47.652;-2.730;2023-08-20T02:20:58;9.25;;;2.47;;
81191;SDS011;70665;47.652;-2.730;2023-08-20T02:23:24;9.65;;;3.10;;
81191;SDS011;70665;47.652;-2.730;2023-08-20T02:25:49;4.07;;;2.45;;
81191;SDS011;70665;47.652;-2.730;2023-08-20T02:28:15;5.03;;;2.67;;
81191;SDS011;70665;47.652;-2.730;2023-08-20T02:30:44;6.78;;;3.30;;
81191;SDS011;70665;47.652;-2.730;2023-08-20T02:33:11;5.90;;;3.17;;
81191;SDS011;70665;47.652;-2.730;2023-08-20T02:35:37;9.50;;;3.15;;
81191;SDS011;70665;47.652;-2.730;2023-08-20T02:38:03;14.43;;;3.20;;
81191;SDS011;70665;47.652;-2.730;2023-08-20T02:40:30;12.65;;;2.90;;
81191;SDS011;70665;47.652;-2.730;2023-08-20T02:42:56;7.40;;;3.10;;
81191;SDS011;70665;47.652;-2.730;2023-08-20T02:45:22;17.25;;;3.40;;
81191;SDS011;70665;47.652;-2.730;2023-08-20T02:47:48;23.15;;;3.53;;
81191;SDS011;70665;47.652;-2.730;2023-08-20T02:50:13;11.35;;;2.88;;
81191;SDS011;70665;47.652;-2.730;2023-08-20T02:52:41;28.60;;;3.92;;
81191;SDS011;70665;47.652;-2.730;2023-08-20T02:55:07;8.80;;;3.28;;
81191;SDS011;70665;47.652;-2.730;2023-08-20T02:57:33;11.75;;;3.17;;
81191;SDS011;70665;47.652;-2.730;2023-08-20T02:59:58;22.02;;;3.30;;
81191;SDS011;70665;47.652;-2.730;2023-08-20T03:02:24;24.02;;;3.20;;
81191;SDS011;70665;47.652;-2.730;2023-08-20T03:04:50;4.28;;;2.17;;
81191;SDS011;70665;47.652;-2.730;2023-08-20T03:07:15;3.55;;;2.05;;
81191;SDS011;70665;47.652;-2.730;2023-08-20T03:09:41;4.38;;;2.33;;
81191;SDS011;70665;47.652;-2.730;2023-08-20T03:12:07;4.25;;;2.40;;
81191;SDS011;70665;47.652;-2.730;2023-08-20T03:14:32;3.88;;;2.17;;
81191;SDS011;70665;47.652;-2.730;2023-08-20T03:16:58;5.72;;;2.22;;
81191;SDS011;70665;47.652;-2.730;2023-08-20T03:19:24;2.70;;;1.88;;
81191;SDS011;70665;47.652;-2.730;2023-08-20T03:21:49;5.35;;;2.90;;
81191;SDS011;70665;47.652;-2.730;2023-08-20T03:24:15;4.45;;;2.50;;
81191;SDS011;70665;47.652;-2.730;2023-08-20T03:26:41;3.63;;;1.90;;
81191;SDS011;70665;47.652;-2.730;2023-08-20T03:29:06;5.30;;;2.25;;
81191;SDS011;70665;47.652;-2.730;2023-08-20T03:31:32;3.63;;;1.98;;
81191;SDS011;70665;47.652;-2.730;2023-08-20T03:33:58;4.05;;;2.20;;
81191;SDS011;70665;47.652;-2.730;2023-08-20T03:36:23;4.15;;;2.58;;
81191;SDS011;70665;47.652;-2.730;2023-08-20T03:38:49;3.90;;;2.40;;
81191;SDS011;70665;47.652;-2.730;2023-08-20T03:41:14;3.88;;;2.15;;
81191;SDS011;70665;47.652;-2.730;2023-08-20T03:43:40;6.50;;;2.15;;
81191;SDS011;70665;47.652;-2.730;2023-08-20T03:46:06;5.68;;;2.78;;
81191;SDS011;70665;47.652;-2.730;2023-08-20T03:48:31;3.78;;;1.75;;
81191;SDS011;70665;47.652;-2.730;2023-08-20T03:50:57;5.32;;;1.80;;
81191;SDS011;70665;47.652;-2.730;2023-08-20T03:53:22;3.63;;;1.88;;
81191;SDS011;70665;47.652;-2.730;2023-08-20T03:55:48;4.85;;;1.63;;
81191;SDS011;70665;47.652;-2.730;2023-08-20T03:58:14;4.20;;;1.70;;
81191;SDS011;70665;47.652;-2.730;2023-08-20T04:00:40;5.30;;;1.30;;
81191;SDS011;70665;47.652;-2.730;2023-08-20T04:05:35;4.47;;;1.73;;
81191;SDS011;70665;47.652;-2.730;2023-08-20T04:08:02;2.85;;;1.58;;
81191;SDS011;70665;47.652;-2.730;2023-08-20T04:10:28;3.40;;;1.42;;
81191;SDS011;70665;47.652;-2.730;2023-08-20T04:15:19;5.57;;;1.20;;
81191;SDS011;70665;47.652;-2.730;2023-08-20T04:17:45;3.65;;;1.40;;
81191;SDS011;70665;47.652;-2.730;2023-08-20T04:22:36;1.30;;;1.10;;
81191;SDS011;70665;47.652;-2.730;2023-08-20T04:25:02;2.78;;;1.48;;
81191;SDS011;70665;47.652;-2.730;2023-08-20T04:27:28;2.67;;;1.45;;
81191;SDS011;70665;47.652;-2.730;2023-08-20T04:32:21;2.58;;;1.25;;
81191;SDS011;70665;47.652;-2.730;2023-08-20T04:37:14;2.40;;;1.13;;
81191;SDS011;70665;47.652;-2.730;2023-08-20T04:42:05;2.75;;;1.25;;
81191;SDS011;70665;47.652;-2.730;2023-08-20T04:44:31;2.42;;;1.52;;
81191;SDS011;70665;47.652;-2.730;2023-08-20T04:46:57;2.13;;;1.20;;
81191;SDS011;70665;47.652;-2.730;2023-08-20T04:51:51;2.70;;;1.20;;
81191;SDS011;70665;47.652;-2.730;2023-08-20T04:56:42;2.78;;;1.08;;
81191;SDS011;70665;47.652;-2.730;2023-08-20T04:59:07;1.48;;;1.00;;
81191;SDS011;70665;47.652;-2.730;2023-08-20T05:03:59;3.15;;;1.45;;
81191;SDS011;70665;47.652;-2.730;2023-08-20T05:06:24;3.55;;;1.42;;
81191;SDS011;70665;47.652;-2.730;2023-08-20T05:08:50;3.38;;;1.15;;
81191;SDS011;70665;47.652;-2.730;2023-08-20T05:13:41;3.55;;;1.75;;
81191;SDS011;70665;47.652;-2.730;2023-08-20T05:16:09;1.77;;;0.90;;
81191;SDS011;70665;47.652;-2.730;2023-08-20T05:21:00;1.73;;;1.10;;
81191;SDS011;70665;47.652;-2.730;2023-08-20T05:23:26;3.80;;;1.13;;
81191;SDS011;70665;47.652;-2.730;2023-08-20T05:25:51;1.95;;;1.33;;
81191;SDS011;70665;47.652;-2.730;2023-08-20T05:28:17;1.88;;;0.80;;
81191;SDS011;70665;47.652;-2.730;2023-08-20T05:33:08;2.20;;;1.23;;
81191;SDS011;70665;47.652;-2.730;2023-08-20T05:37:59;2.03;;;1.00;;
81191;SDS011;70665;47.652;-2.730;2023-08-20T05:40:25;1.50;;;1.02;;
81191;SDS011;70665;47.652;-2.730;2023-08-20T05:42:50;2.33;;;0.93;;
81191;SDS011;70665;47.652;-2.730;2023-08-20T05:45:16;1.35;;;1.10;;
81191;SDS011;70665;47.652;-2.730;2023-08-20T05:50:07;1.83;;;1.23;;
81191;SDS011;70665;47.652;-2.730;2023-08-20T05:52:33;1.13;;;1.02;;
81191;SDS011;70665;47.652;-2.730;2023-08-20T05:54:58;1.13;;;0.82;;
81191;SDS011;70665;47.652;-2.730;2023-08-20T05:57:24;0.90;;;0.90;;
81191;SDS011;70665;47.652;-2.730;2023-08-20T05:59:49;0.80;;;0.80;;
81191;SDS011;70665;47.652;-2.730;2023-08-20T06:02:16;1.52;;;0.95;;
81191;SDS011;70665;47.652;-2.730;2023-08-20T06:04:44;1.77;;;0.95;;
81191;SDS011;70665;47.652;-2.730;2023-08-20T06:09:36;0.90;;;0.90;;
81191;SDS011;70665;47.652;-2.730;2023-08-20T06:12:01;2.58;;;1.15;;
81191;SDS011;70665;47.652;-2.730;2023-08-20T06:14:27;0.88;;;0.80;;
81191;SDS011;70665;47.652;-2.730;2023-08-20T06:16:52;1.00;;;0.90;;
81191;SDS011;70665;47.652;-2.730;2023-08-20T06:19:18;1.10;;;0.98;;
81191;SDS011;70665;47.652;-2.730;2023-08-20T06:21:44;1.25;;;0.70;;
81191;SDS011;70665;47.652;-2.730;2023-08-20T06:26:35;1.27;;;0.80;;
81191;SDS011;70665;47.652;-2.730;2023-08-20T06:29:00;2.83;;;1.00;;
81191;SDS011;70665;47.652;-2.730;2023-08-20T06:31:27;3.05;;;1.00;;
81191;SDS011;70665;47.652;-2.730;2023-08-20T06:36:18;1.70;;;0.90;;
81191;SDS011;70665;47.652;-2.730;2023-08-20T06:38:44;1.85;;;1.05;;
81191;SDS011;70665;47.652;-2.730;2023-08-20T06:41:10;1.98;;;1.00;;
81191;SDS011;70665;47.652;-2.730;2023-08-20T06:43:35;1.40;;;1.00;;
81191;SDS011;70665;47.652;-2.730;2023-08-20T06:46:01;2.20;;;1.20;;
81191;SDS011;70665;47.652;-2.730;2023-08-20T06:48:26;1.30;;;1.00;;
81191;SDS011;70665;47.652;-2.730;2023-08-20T06:53:18;1.92;;;1.10;;
81191;SDS011;70665;47.652;-2.730;2023-08-20T06:55:43;6.22;;;0.95;;
81191;SDS011;70665;47.652;-2.730;2023-08-20T06:58:09;2.60;;;1.30;;
81191;SDS011;70665;47.652;-2.730;2023-08-20T07:00:35;4.03;;;1.15;;
81191;SDS011;70665;47.652;-2.730;2023-08-20T07:03:00;3.20;;;1.10;;
81191;SDS011;70665;47.652;-2.730;2023-08-20T07:05:26;2.03;;;1.20;;
81191;SDS011;70665;47.652;-2.730;2023-08-20T07:07:51;3.10;;;1.38;;
81191;SDS011;70665;47.652;-2.730;2023-08-20T07:10:17;2.85;;;1.10;;
81191;SDS011;70665;47.652;-2.730;2023-08-20T07:12:43;4.30;;;1.50;;
81191;SDS011;70665;47.652;-2.730;2023-08-20T07:15:08;5.55;;;1.35;;
81191;SDS011;70665;47.652;-2.730;2023-08-20T07:17:34;1.85;;;1.00;;
81191;SDS011;70665;47.652;-2.730;2023-08-20T07:20:00;3.22;;;1.20;;
81191;SDS011;70665;47.652;-2.730;2023-08-20T07:22:25;7.72;;;1.77;;
81191;SDS011;70665;47.652;-2.730;2023-08-20T07:24:51;4.88;;;1.38;;
81191;SDS011;70665;47.652;-2.730;2023-08-20T07:27:17;3.65;;;1.20;;
81191;SDS011;70665;47.652;-2.730;2023-08-20T07:29:42;4.45;;;1.50;;
81191;SDS011;70665;47.652;-2.730;2023-08-20T07:32:08;4.30;;;1.52;;
81191;SDS011;70665;47.652;-2.730;2023-08-20T07:34:33;7.45;;;1.40;;
81191;SDS011;70665;47.652;-2.730;2023-08-20T07:36:59;4.03;;;1.20;;
81191;SDS011;70665;47.652;-2.730;2023-08-20T07:39:26;7.43;;;1.70;;
81191;SDS011;70665;47.652;-2.730;2023-08-20T07:41:51;6.38;;;1.30;;
81191;SDS011;70665;47.652;-2.730;2023-08-20T07:44:17;3.90;;;1.50;;
81191;SDS011;70665;47.652;-2.730;2023-08-20T07:46:42;5.82;;;1.65;;
81191;SDS011;70665;47.652;-2.730;2023-08-20T07:49:08;4.57;;;1.48;;
81191;SDS011;70665;47.652;-2.730;2023-08-20T07:51:34;10.13;;;1.70;;
81191;SDS011;70665;47.652;-2.730;2023-08-20T07:53:59;10.50;;;2.03;;
81191;SDS011;70665;47.652;-2.730;2023-08-20T07:56:25;7.90;;;1.95;;
81191;SDS011;70665;47.652;-2.730;2023-08-20T07:58:51;8.85;;;1.75;;
81191;SDS011;70665;47.652;-2.730;2023-08-20T08:01:17;8.25;;;1.67;;
81191;SDS011;70665;47.652;-2.730;2023-08-20T08:03:42;5.93;;;1.60;;
81191;SDS011;70665;47.652;-2.730;2023-08-20T08:06:08;8.65;;;1.80;;
81191;SDS011;70665;47.652;-2.730;2023-08-20T08:08:34;12.05;;;2.33;;
81191;SDS011;70665;47.652;-2.730;2023-08-20T08:10:59;11.35;;;1.63;;
81191;SDS011;70665;47.652;-2.730;2023-08-20T08:13:25;14.25;;;2.20;;
81191;SDS011;70665;47.652;-2.730;2023-08-20T08:15:50;8.38;;;1.83;;
81191;SDS011;70665;47.652;-2.730;2023-08-20T08:18:17;7.72;;;2.45;;
81191;SDS011;70665;47.652;-2.730;2023-08-20T08:20:46;9.85;;;1.95;;
81191;SDS011;70665;47.652;-2.730;2023-08-20T08:23:11;11.43;;;1.73;;
81191;SDS011;70665;47.652;-2.730;2023-08-20T08:25:37;8.70;;;1.90;;
81191;SDS011;70665;47.652;-2.730;2023-08-20T08:28:03;6.97;;;2.30;;
81191;SDS011;70665;47.652;-2.730;2023-08-20T08:30:29;6.28;;;1.90;;
81191;SDS011;70665;47.652;-2.730;2023-08-20T08:32:55;6.22;;;1.27;;
81191;SDS011;70665;47.652;-2.730;2023-08-20T08:35:21;6.20;;;1.80;;
81191;SDS011;70665;47.652;-2.730;2023-08-20T08:37:46;10.70;;;2.25;;
81191;SDS011;70665;47.652;-2.730;2023-08-20T08:40:12;9.57;;;2.30;;
81191;SDS011;70665;47.652;-2.730;2023-08-20T08:42:38;6.53;;;1.90;;
81191;SDS011;70665;47.652;-2.730;2023-08-20T08:45:05;5.32;;;1.50;;
81191;SDS011;70665;47.652;-2.730;2023-08-20T08:47:31;10.00;;;1.60;;
81191;SDS011;70665;47.652;-2.730;2023-08-20T08:49:58;9.27;;;1.63;;
81191;SDS011;70665;47.652;-2.730;2023-08-20T08:52:24;12.13;;;1.88;;
81191;SDS011;70665;47.652;-2.730;2023-08-20T08:54:51;3.03;;;1.15;;
81191;SDS011;70665;47.652;-2.730;2023-08-20T08:57:17;3.60;;;1.45;;
81191;SDS011;70665;47.652;-2.730;2023-08-20T08:59:43;5.25;;;1.60;;
81191;SDS011;70665;47.652;-2.730;2023-08-20T09:02:10;5.75;;;1.80;;
81191;SDS011;70665;47.652;-2.730;2023-08-20T09:04:38;5.30;;;1.10;;
81191;SDS011;70665;47.652;-2.730;2023-08-20T09:07:05;7.95;;;1.40;;
81191;SDS011;70665;47.652;-2.730;2023-08-20T09:09:35;8.05;;;1.38;;
81191;SDS011;70665;47.652;-2.730;2023-08-20T09:12:02;5.22;;;1.50;;
81191;SDS011;70665;47.652;-2.730;2023-08-20T09:14:38;8.10;;;1.52;;
81191;SDS011;70665;47.652;-2.730;2023-08-20T09:17:04;5.05;;;1.02;;
81191;SDS011;70665;47.652;-2.730;2023-08-20T09:19:31;6.10;;;1.33;;
81191;SDS011;70665;47.652;-2.730;2023-08-20T09:22:04;6.35;;;1.38;;
81191;SDS011;70665;47.652;-2.730;2023-08-20T09:24:33;5.10;;;0.95;;
81191;SDS011;70665;47.652;-2.730;2023-08-20T09:26:59;7.10;;;1.10;;
81191;SDS011;70665;47.652;-2.730;2023-08-20T09:29:34;7.05;;;1.48;;
81191;SDS011;70665;47.652;-2.730;2023-08-20T09:32:13;3.95;;;1.15;;
81191;SDS011;70665;47.652;-2.730;2023-08-20T09:34:40;6.45;;;1.23;;
81191;SDS011;70665;47.652;-2.730;2023-08-20T09:37:09;5.55;;;2.08;;
81191;SDS011;70665;47.652;-2.730;2023-08-20T09:39:39;5.45;;;1.35;;
81191;SDS011;70665;47.652;-2.730;2023-08-20T09:42:05;6.13;;;1.23;;
81191;SDS011;70665;47.652;-2.730;2023-08-20T09:44:32;5.00;;;1.30;;
81191;SDS011;70665;47.652;-2.730;2023-08-20T09:47:00;4.78;;;1.30;;
81191;SDS011;70665;47.652;-2.730;2023-08-20T09:49:43;6.82;;;1.30;;
81191;SDS011;70665;47.652;-2.730;2023-08-20T09:52:11;4.78;;;1.45;;
81191;SDS011;70665;47.652;-2.730;2023-08-20T09:57:20;4.20;;;1.17;;
81191;SDS011;70665;47.652;-2.730;2023-08-20T09:59:54;2.50;;;0.95;;
81191;SDS011;70665;47.652;-2.730;2023-08-20T10:02:20;5.07;;;1.08;;
81191;SDS011;70665;47.652;-2.730;2023-08-20T10:04:46;4.53;;;1.23;;
81191;SDS011;70665;47.652;-2.730;2023-08-20T10:07:14;6.57;;;1.67;;
81191;SDS011;70665;47.652;-2.730;2023-08-20T10:09:39;3.50;;;1.42;;
81191;SDS011;70665;47.652;-2.730;2023-08-20T10:12:07;4.00;;;1.30;;
81191;SDS011;70665;47.652;-2.730;2023-08-20T10:14:33;4.03;;;1.30;;
81191;SDS011;70665;47.652;-2.730;2023-08-20T10:16:59;4.15;;;1.20;;
81191;SDS011;70665;47.652;-2.730;2023-08-20T10:19:30;6.38;;;1.52;;
81191;SDS011;70665;47.652;-2.730;2023-08-20T10:21:56;6.78;;;1.50;;
81191;SDS011;70665;47.652;-2.730;2023-08-20T10:24:23;4.38;;;1.35;;
81191;SDS011;70665;47.652;-2.730;2023-08-20T10:26:49;7.20;;;1.38;;
81191;SDS011;70665;47.652;-2.730;2023-08-20T10:29:37;4.20;;;1.80;;
81191;SDS011;70665;47.652;-2.730;2023-08-20T10:32:05;5.25;;;1.55;;
81191;SDS011;70665;47.652;-2.730;2023-08-20T10:34:38;3.80;;;1.30;;
81191;SDS011;70665;47.652;-2.730;2023-08-20T10:37:13;3.58;;;1.65;;
81191;SDS011;70665;47.652;-2.730;2023-08-20T10:39:39;2.88;;;1.20;;
81191;SDS011;70665;47.652;-2.730;2023-08-20T10:42:08;5.07;;;1.67;;
81191;SDS011;70665;47.652;-2.730;2023-08-20T10:44:56;6.45;;;1.38;;
81191;SDS011;70665;47.652;-2.730;2023-08-20T10:47:23;6.32;;;1.33;;
81191;SDS011;70665;47.652;-2.730;2023-08-20T10:49:52;2.42;;;0.95;;
81191;SDS011;70665;47.652;-2.730;2023-08-20T10:52:22;4.45;;;1.20;;
81191;SDS011;70665;47.652;-2.730;2023-08-20T10:54:49;3.55;;;1.13;;
81191;SDS011;70665;47.652;-2.730;2023-08-20T10:57:16;4.18;;;1.30;;
81191;SDS011;70665;47.652;-2.730;2023-08-20T10:59:42;3.33;;;1.45;;
81191;SDS011;70665;47.652;-2.730;2023-08-20T11:02:09;4.63;;;1.50;;
81191;SDS011;70665;47.652;-2.730;2023-08-20T11:04:40;3.75;;;0.90;;
81191;SDS011;70665;47.652;-2.730;2023-08-20T11:07:06;4.82;;;1.17;;
81191;SDS011;70665;47.652;-2.730;2023-08-20T11:09:33;4.80;;;1.40;;
81191;SDS011;70665;47.652;-2.730;2023-08-20T11:11:58;4.60;;;1.35;;
81191;SDS011;70665;47.652;-2.730;2023-08-20T11:14:24;7.45;;;1.20;;
81191;SDS011;70665;47.652;-2.730;2023-08-20T11:16:50;2.63;;;1.20;;
81191;SDS011;70665;47.652;-2.730;2023-08-20T11:19:20;4.63;;;0.98;;
81191;SDS011;70665;47.652;-2.730;2023-08-20T11:21:47;3.15;;;1.30;;
81191;SDS011;70665;47.652;-2.730;2023-08-20T11:24:13;3.05;;;1.10;;
81191;SDS011;70665;47.652;-2.730;2023-08-20T11:26:40;3.63;;;1.10;;
81191;SDS011;70665;47.652;-2.730;2023-08-20T11:29:06;6.88;;;1.27;;
81191;SDS011;70665;47.652;-2.730;2023-08-20T11:31:33;4.47;;;1.23;;
81191;SDS011;70665;47.652;-2.730;2023-08-20T11:34:01;3.25;;;1.20;;
81191;SDS011;70665;47.652;-2.730;2023-08-20T11:36:27;2.80;;;1.10;;
81191;SDS011;70665;47.652;-2.730;2023-08-20T11:38:53;5.20;;;1.63;;
81191;SDS011;70665;47.652;-2.730;2023-08-20T11:41:20;3.30;;;1.00;;
81191;SDS011;70665;47.652;-2.730;2023-08-20T11:43:49;8.18;;;1.42;;
81191;SDS011;70665;47.652;-2.730;2023-08-20T11:46:18;3.35;;;1.05;;
81191;SDS011;70665;47.652;-2.730;2023-08-20T11:49:05;5.43;;;1.27;;
81191;SDS011;70665;47.652;-2.730;2023-08-20T11:54:01;3.15;;;1.20;;
81191;SDS011;70665;47.652;-2.730;2023-08-20T11:56:28;2.83;;;1.48;;
81191;SDS011;70665;47.652;-2.730;2023-08-20T11:58:58;4.72;;;1.35;;
81191;SDS011;70665;47.652;-2.730;2023-08-20T12:01:24;3.05;;;0.90;;
81191;SDS011;70665;47.652;-2.730;2023-08-20T12:03:50;2.60;;;0.90;;
81191;SDS011;70665;47.652;-2.730;2023-08-20T12:06:19;2.50;;;1.00;;
81191;SDS011;70665;47.652;-2.730;2023-08-20T12:08:46;4.53;;;1.23;;
81191;SDS011;70665;47.652;-2.730;2023-08-20T12:11:12;3.10;;;1.08;;
81191;SDS011;70665;47.652;-2.730;2023-08-20T12:13:38;3.63;;;1.10;;
81191;SDS011;70665;47.652;-2.730;2023-08-20T12:16:04;2.72;;;1.20;;
81191;SDS011;70665;47.652;-2.730;2023-08-20T12:18:29;3.05;;;1.33;;
81191;SDS011;70665;47.652;-2.730;2023-08-20T12:20:55;2.85;;;1.00;;
81191;SDS011;70665;47.652;-2.730;2023-08-20T12:23:21;3.05;;;0.98;;
81191;SDS011;70665;47.652;-2.730;2023-08-20T12:25:51;2.80;;;1.17;;
81191;SDS011;70665;47.652;-2.730;2023-08-20T12:28:17;2.35;;;1.20;;
81191;SDS011;70665;47.652;-2.730;2023-08-20T12:30:43;7.05;;;1.52;;
81191;SDS011;70665;47.652;-2.730;2023-08-20T12:33:09;4.07;;;1.40;;
81191;SDS011;70665;47.652;-2.730;2023-08-20T12:35:36;4.20;;;1.23;;
81191;SDS011;70665;47.652;-2.730;2023-08-20T12:38:01;2.65;;;1.00;;
81191;SDS011;70665;47.652;-2.730;2023-08-20T12:40:28;2.60;;;1.00;;
81191;SDS011;70665;47.652;-2.730;2023-08-20T12:42:53;2.88;;;1.13;;
81191;SDS011;70665;47.652;-2.730;2023-08-20T12:45:19;3.00;;;1.17;;
81191;SDS011;70665;47.652;-2.730;2023-08-20T12:47:45;5.55;;;1.23;;
81191;SDS011;70665;47.652;-2.730;2023-08-20T12:50:11;5.90;;;1.38;;
81191;SDS011;70665;47.652;-2.730;2023-08-20T12:52:38;3.20;;;1.20;;
81191;SDS011;70665;47.652;-2.730;2023-08-20T12:55:04;3.45;;;1.20;;
81191;SDS011;70665;47.652;-2.730;2023-08-20T12:57:30;4.68;;;1.40;;
81191;SDS011;70665;47.652;-2.730;2023-08-20T12:59:58;3.65;;;1.20;;
81191;SDS011;70665;47.652;-2.730;2023-08-20T13:02:24;3.10;;;1.40;;
81191;SDS011;70665;47.652;-2.730;2023-08-20T13:04:50;4.05;;;1.25;;
81191;SDS011;70665;47.652;-2.730;2023-08-20T13:07:16;3.65;;;1.40;;
81191;SDS011;70665;47.652;-2.730;2023-08-20T13:09:42;4.93;;;1.50;;
81191;SDS011;70665;47.652;-2.730;2023-08-20T13:12:09;4.45;;;1.88;;
81191;SDS011;70665;47.652;-2.730;2023-08-20T13:14:37;4.38;;;1.67;;
81191;SDS011;70665;47.652;-2.730;2023-08-20T13:17:04;6.68;;;1.60;;
81191;SDS011;70665;47.652;-2.730;2023-08-20T13:19:31;3.65;;;1.50;;
81191;SDS011;70665;47.652;-2.730;2023-08-20T13:21:56;4.57;;;1.40;;
81191;SDS011;70665;47.652;-2.730;2023-08-20T13:24:22;5.65;;;1.60;;
81191;SDS011;70665;47.652;-2.730;2023-08-20T13:26:48;5.57;;;2.10;;
81191;SDS011;70665;47.652;-2.730;2023-08-20T13:29:16;5.18;;;1.73;;
81191;SDS011;70665;47.652;-2.730;2023-08-20T13:31:42;6.65;;;2.08;;
81191;SDS011;70665;47.652;-2.730;2023-08-20T13:34:08;5.47;;;1.75;;
81191;SDS011;70665;47.652;-2.730;2023-08-20T13:36:34;5.22;;;1.75;;
81191;SDS011;70665;47.652;-2.730;2023-08-20T13:39:00;4.85;;;1.52;;
81191;SDS011;70665;47.652;-2.730;2023-08-20T13:41:26;4.57;;;1.50;;
81191;SDS011;70665;47.652;-2.730;2023-08-20T13:43:52;6.25;;;1.90;;
81191;SDS011;70665;47.652;-2.730;2023-08-20T13:46:18;6.82;;;1.70;;
81191;SDS011;70665;47.652;-2.730;2023-08-20T13:48:44;4.93;;;1.70;;
81191;SDS011;70665;47.652;-2.730;2023-08-20T13:51:09;4.32;;;1.58;;
81191;SDS011;70665;47.652;-2.730;2023-08-20T13:53:35;3.80;;;1.45;;
81191;SDS011;70665;47.652;-2.730;2023-08-20T13:56:01;4.50;;;1.70;;
81191;SDS011;70665;47.652;-2.730;2023-08-20T13:58:27;6.18;;;1.50;;
81191;SDS011;70665;47.652;-2.730;2023-08-20T14:00:52;3.63;;;1.33;;
81191;SDS011;70665;47.652;-2.730;2023-08-20T14:03:18;6.32;;;1.52;;
81191;SDS011;70665;47.652;-2.730;2023-08-20T14:05:44;3.38;;;1.30;;
81191;SDS011;70665;47.652;-2.730;2023-08-20T14:08:10;5.10;;;2.15;;
81191;SDS011;70665;47.652;-2.730;2023-08-20T14:10:36;5.45;;;1.48;;
81191;SDS011;70665;47.652;-2.730;2023-08-20T14:13:02;8.73;;;1.42;;
81191;SDS011;70665;47.652;-2.730;2023-08-20T14:15:28;5.82;;;1.80;;
81191;SDS011;70665;47.652;-2.730;2023-08-20T14:17:54;2.53;;;1.08;;
81191;SDS011;70665;47.652;-2.730;2023-08-20T14:20:19;4.50;;;1.30;;
81191;SDS011;70665;47.652;-2.730;2023-08-20T14:22:45;2.13;;;0.90;;
81191;SDS011;70665;47.652;-2.730;2023-08-20T14:25:11;4.43;;;1.30;;
81191;SDS011;70665;47.652;-2.730;2023-08-20T14:27:36;5.13;;;0.70;;
81191;SDS011;70665;47.652;-2.730;2023-08-20T14:30:02;4.97;;;1.33;;
81191;SDS011;70665;47.652;-2.730;2023-08-20T14:32:29;3.30;;;0.80;;
81191;SDS011;70665;47.652;-2.730;2023-08-20T14:34:54;2.85;;;1.10;;
81191;SDS011;70665;47.652;-2.730;2023-08-20T14:37:20;3.53;;;1.30;;
81191;SDS011;70665;47.652;-2.730;2023-08-20T14:39:49;6.00;;;1.20;;
81191;SDS011;70665;47.652;-2.730;2023-08-20T14:42:16;4.90;;;1.70;;
81191;SDS011;70665;47.652;-2.730;2023-08-20T14:44:42;5.13;;;1.58;;
81191;SDS011;70665;47.652;-2.730;2023-08-20T14:47:19;3.30;;;1.10;;
81191;SDS011;70665;47.652;-2.730;2023-08-20T14:49:45;3.72;;;1.00;;
81191;SDS011;70665;47.652;-2.730;2023-08-20T14:52:11;9.43;;;1.20;;
81191;SDS011;70665;47.652;-2.730;2023-08-20T14:54:37;6.68;;;1.45;;
81191;SDS011;70665;47.652;-2.730;2023-08-20T14:57:02;5.35;;;1.33;;
81191;SDS011;70665;47.652;-2.730;2023-08-20T14:59:28;6.72;;;1.60;;
81191;SDS011;70665;47.652;-2.730;2023-08-20T15:01:54;3.53;;;1.38;;
81191;SDS011;70665;47.652;-2.730;2023-08-20T15:04:19;3.90;;;1.30;;
81191;SDS011;70665;47.652;-2.730;2023-08-20T15:06:45;4.85;;;1.30;;
81191;SDS011;70665;47.652;-2.730;2023-08-20T15:09:10;4.97;;;1.48;;
81191;SDS011;70665;47.652;-2.730;2023-08-20T15:11:40;7.35;;;1.40;;
81191;SDS011;70665;47.652;-2.730;2023-08-20T15:14:09;9.40;;;1.63;;
81191;SDS011;70665;47.652;-2.730;2023-08-20T15:16:35;3.22;;;1.00;;
81191;SDS011;70665;47.652;-2.730;2023-08-20T15:19:01;5.88;;;1.30;;
81191;SDS011;70665;47.652;-2.730;2023-08-20T15:21:27;6.00;;;1.23;;
81191;SDS011;70665;47.652;-2.730;2023-08-20T15:23:52;6.15;;;2.05;;
81191;SDS011;70665;47.652;-2.730;2023-08-20T15:26:18;5.15;;;1.30;;